• Join FlightAware (Why Join?)
  • Login
  • US Flag 
11:00AM EST


 

Airport Tracker/Info


-or-


 

Live Flight TrackerFlight Track Log ✈ MTN8324 ✈ 08-Oct-2013 ✈ KEWR - KBUF

Flight Track Log - Related Links

Times and Time Zones

All times are in EDT time to prevent confusion due to time zone crossing. See the MTN8324 flight status page for this flight to view local times or setup timezone preferences in your user account.

Time Position Orientation Groundspeed Altitude Reporting Facility
EDT Latitude Longitude Course Direction KTS MPH feet Rate Location/Type
04:06AM 40.7000 -74.1500 37° Northeast 134 154 1,400  Level New York TRACON
04:07AM 40.7333 -74.1167 37° Northeast 158 182 2,900 1,500 Climbing New York TRACON
04:08AM 40.7833 -74.1333 346° North 152 175 4,400 1,500 Climbing New York TRACON
04:09AM 40.8167 -74.1667 323° Northwest 161 185 5,900 1,380 Climbing New York TRACON
04:10AM 40.8500 -74.2000 323° Northwest 172 198 7,200 1,260 Climbing New York TRACON
04:11AM 40.9000 -74.2167 346° North 182 209 8,500 1,260 Climbing New York TRACON
04:13AM 40.9864 -74.2867 329° Northwest 173 199 11,000 1,080 Climbing New York Center
04:14AM 41.0142 -74.3322 309° West 164 189 11,800 840 Climbing New York Center
04:15AM 41.0397 -74.3831 304° West 162 186 12,700 780 Climbing New York Center
04:16AM 41.0653 -74.4339 304° West 169 194 13,400 660 Climbing New York Center
04:17AM 41.0906 -74.4906 301° West 169 194 14,100 720 Climbing New York Center
04:18AM 41.1181 -74.5442 304° West 174 200 14,900 780 Climbing New York Center
04:19AM 41.1433 -74.6008 301° West 174 200 15,700 540 Climbing New York Center
04:20AM 41.1706 -74.6575 303° West 179 206 16,000 120 Climbing New York Center
04:21AM 41.1975 -74.7197 300° West 191 220 16,000  Level New York Center
04:22AM 41.2328 -74.7906 304° West 218 251 16,000  Level New York Center
04:23AM 41.2636 -74.8614 300° West 229 264 16,000  Level New York Center
04:24AM 41.2964 -74.9353 301° West 229 264 16,000  Level New York Center
04:25AM 41.3314 -75.0092 302° West 234 269 16,000  Level New York Center
04:26AM 41.3625 -75.0719 303° West 229 264 16,000  Level New York Center
04:27AM 41.3931 -75.1458 299° West 229 264 16,000  Level New York Center
04:28AM 41.4317 -75.2258 303° West 235 270 16,000  Level New York Center
04:29AM 41.4642 -75.3000 300° West 230 265 16,000  Level New York Center
04:30AM 41.4950 -75.3658 302° West 230 265 16,000  Level New York Center
04:31AM 41.5275 -75.4400 300° West 230 265 16,000  Level New York Center
04:32AM 41.5619 -75.5200 300° West 230 265 16,000  Level New York Center
04:33AM 41.5964 -75.5919 303° West 230 265 16,000  Level New York Center
04:34AM 41.6269 -75.6633 300° West 230 265 16,000  Level New York Center
04:35AM 41.6611 -75.7381 301° West 230 265 16,000  Level New York Center
04:36AM 41.6936 -75.8100 301° West 230 265 16,000  Level New York Center
04:37AM 41.7219 -75.8761 300° West 230 265 16,000  Level New York Center
04:38AM 41.7542 -75.9481 301° West 230 265 16,000  Level New York Center
04:39AM 41.7883 -76.0286 300° West 230 265 16,000  Level New York Center
04:40AM 41.8203 -76.1008 301° West 230 265 16,000  Level New York Center
04:41AM 41.8508 -76.1644 303° West 230 265 16,000  Level New York Center
04:42AM 41.8808 -76.2364 299° West 230 265 16,000  Level New York Center
04:43AM 41.9167 -76.3147 302° West 230 265 16,000  Level New York Center
04:44AM 41.9469 -76.3814 301° West 230 265 16,000  Level New York Center
04:45AM 41.9789 -76.4567 300° West 230 265 16,000  Level New York Center
04:46AM 42.0128 -76.5294 302° West 230 265 16,000  Level New York Center
04:49AM 42.0911 -76.7089 301° West 227 261 16,000 -60 Level Cleveland Center
04:50AM 42.1228 -76.7819 300° West 227 261 15,900 -60 Descending Cleveland Center
04:51AM 42.1544 -76.8561 300° West 229 264 15,900  Level Cleveland Center
04:52AM 42.1867 -76.9300 300° West 229 264 15,900  Level Cleveland Center
04:53AM 42.2192 -77.0033 301° West 229 264 15,900  Level Cleveland Center
04:54AM 42.2497 -77.0761 300° West 224 258 15,900  Level Cleveland Center
04:55AM 42.2819 -77.1497 301° West 225 259 15,900  Level Cleveland Center
04:56AM 42.3136 -77.2239 300° West 228 262 15,900  Level Cleveland Center
04:57AM 42.3453 -77.2986 300° West 229 264 15,900  Level Cleveland Center
04:58AM 42.3772 -77.3728 300° West 228 262 15,900  Level Cleveland Center
04:59AM 42.4089 -77.4478 300° West 229 264 15,900  Level Cleveland Center
05:00AM 42.4419 -77.5258 300° West 229 264 15,900 -300 Level Cleveland Center
05:01AM 42.4744 -77.6022 300° West 233 268 15,400 -780 Descending Cleveland Center
05:02AM 42.5089 -77.6853 299° West 252 290 14,400 -1,020 Descending Cleveland Center
05:03AM 42.5431 -77.7667 300° West 249 287 13,400 -1,020 Descending Cleveland Center
05:04AM 42.5764 -77.8453 300° West 243 280 12,400 -1,020 Descending Cleveland Center
05:05AM 42.6200 -77.9128 311° West 240 276 11,400 -720 Descending Cleveland Center
05:06AM 42.6614 -77.9847 308° West 239 275 11,000 -240 Descending Cleveland Center
05:07AM 42.7028 -78.0489 311° West 229 264 11,000  Level Cleveland Center
05:08AM 42.7431 -78.1161 309° West 228 262 11,000 -120 Level Cleveland Center
05:09AM 42.7847 -78.1783 312° West 224 258 10,800 -1,200 Descending Cleveland Center
05:10AM 42.8275 -78.2564 307° West 222 255 8,700 -1,920 Descending Cleveland Center
05:11AM 42.8656 -78.3186 310° West 222 255 7,000 -1,740 Descending Cleveland Center
05:12AM 42.9075 -78.3861 310° West 223 257 5,200 -1,620 Descending Cleveland Center
05:13AM 42.9417 -78.4431 309° West 206 237 3,800 -1,440 Descending Cleveland Center
05:14AM 42.9761 -78.4967 311° West 183 211 2,300 -780 Descending Cleveland Center
05:15AM 42.9989 -78.5483 301° West 175 201 2,300  Level Cleveland Center
05:16AM 43.0067 -78.6092 280° West 165 190 2,300 -120 Level Cleveland Center
05:17AM 43.0000 -78.6500 257° West 160 184 2,100 -540 Descending Buffalo TRACON
05:18AM 42.9667 -78.7000 228° Southwest 127 146 1,300 -840 Descending Buffalo TRACON